Time;durP1;ratioP1;P1;durP2;ratioP2;P2;SDS_P1;SDS_P2;PMS_P1;PMS_P2;Temp;Humidity;BMP_temperature;BMP_pressure;BME280_temperature;BME280_humidity;BME280_pressure;Samples;Min_cycle;Max_cycle;Signal;HPM_P1;HPM_P2
2022/08/23 00:02:54;;;;;;;7.55;4.00;;;;;;;;;;10109386;28;20046;-67
2022/08/23 00:07:51;;;;;;;8.02;3.85;;;;;;;;;;10104265;28;20110;-68
2022/08/23 00:12:47;;;;;;;7.32;4.00;;;;;;;;;;10104174;28;20043;-67
2022/08/23 00:17:43;;;;;;;6.35;4.03;;;;;;;;;;10110151;28;20039;-67
2022/08/23 00:22:40;;;;;;;4.30;3.30;;;;;;;;;;10108013;28;20588;-67
2022/08/23 00:27:36;;;;;;;6.82;3.45;;;;;;;;;;10104801;28;20146;-67
2022/08/23 00:32:35;;;;;;;9.18;4.15;;;;;;;;;;10102557;28;20081;-68
2022/08/23 00:37:32;;;;;;;5.30;3.30;;;;;;;;;;10106418;28;20070;-68
2022/08/23 00:47:47;;;;;;;7.05;3.50;;;;;;;;;;10105369;28;20066;-67
2022/08/23 00:52:49;;;;;;;6.28;3.13;;;;;;;;;;10107363;28;20125;-67
2022/08/23 00:57:46;;;;;;;8.38;3.95;;;;;;;;;;10101994;28;20063;-68
2022/08/23 01:02:43;;;;;;;5.38;3.60;;;;;;;;;;10097391;28;20089;-68
2022/08/23 01:07:40;;;;;;;6.70;3.75;;;;;;;;;;10102936;28;20046;-68
2022/08/23 01:12:40;;;;;;;6.20;3.30;;;;;;;;;;10110042;28;20487;-66
2022/08/23 01:17:39;;;;;;;8.70;4.00;;;;;;;;;;10103490;28;20142;-66
2022/08/23 01:22:41;;;;;;;5.22;3.78;;;;;;;;;;10118966;28;20129;-66
2022/08/23 01:27:38;;;;;;;6.47;3.97;;;;;;;;;;10113664;28;20051;-65
2022/08/23 01:32:36;;;;;;;6.00;2.83;;;;;;;;;;10115402;28;20074;-66
2022/08/23 01:37:32;;;;;;;6.25;3.67;;;;;;;;;;10114267;28;20054;-65
2022/08/23 01:42:29;;;;;;;6.47;3.40;;;;;;;;;;10114130;28;20146;-65
2022/08/23 01:47:26;;;;;;;5.05;3.22;;;;;;;;;;10110060;28;20050;-65
2022/08/23 01:52:22;;;;;;;5.40;3.42;;;;;;;;;;10115338;28;20091;-65
2022/08/23 01:57:18;;;;;;;8.90;4.13;;;;;;;;;;10111429;28;20042;-65
2022/08/23 02:02:15;;;;;;;6.75;3.22;;;;;;;;;;10108240;28;20134;-66
2022/08/23 02:07:12;;;;;;;9.43;4.00;;;;;;;;;;10112709;28;20122;-65
2022/08/23 02:12:08;;;;;;;5.22;3.13;;;;;;;;;;10113069;28;20074;-65
2022/08/23 02:17:04;;;;;;;7.20;3.30;;;;;;;;;;10104471;28;20098;-66
2022/08/23 02:22:02;;;;;;;7.07;3.70;;;;;;;;;;10113277;28;20078;-66
2022/08/23 02:27:00;;;;;;;7.00;3.28;;;;;;;;;;10106628;28;20074;-66
2022/08/23 02:31:57;;;;;;;7.10;3.40;;;;;;;;;;10108530;28;20513;-67
2022/08/23 02:36:55;;;;;;;4.78;2.95;;;;;;;;;;10104793;28;20050;-67
2022/08/23 02:41:52;;;;;;;6.05;3.60;;;;;;;;;;10106667;28;20074;-67
2022/08/23 02:46:48;;;;;;;5.80;3.50;;;;;;;;;;10112250;28;20701;-67
2022/08/23 02:51:45;;;;;;;6.35;3.30;;;;;;;;;;10111943;28;20468;-66
2022/08/23 02:56:41;;;;;;;4.97;3.33;;;;;;;;;;10109016;28;20145;-67
2022/08/23 03:01:38;;;;;;;5.30;3.70;;;;;;;;;;10110985;28;20162;-68
2022/08/23 03:06:35;;;;;;;5.88;3.33;;;;;;;;;;10105937;28;20414;-67
2022/08/23 03:11:31;;;;;;;5.70;3.35;;;;;;;;;;10110313;28;20050;-67
2022/08/23 03:16:28;;;;;;;8.57;3.63;;;;;;;;;;10104307;28;20054;-67
2022/08/23 03:21:24;;;;;;;5.63;3.60;;;;;;;;;;10108169;28;20521;-67
2022/08/23 03:26:21;;;;;;;7.78;3.80;;;;;;;;;;10105991;28;20129;-67
2022/08/23 03:31:17;;;;;;;5.63;3.60;;;;;;;;;;10103177;28;20053;-67
2022/08/23 03:36:14;;;;;;;5.45;3.80;;;;;;;;;;10111450;28;20105;-68
2022/08/23 03:41:11;;;;;;;7.78;3.60;;;;;;;;;;10099352;28;20389;-67
2022/08/23 03:46:07;;;;;;;5.07;3.72;;;;;;;;;;10092997;28;20097;-67
2022/08/23 03:51:04;;;;;;;6.15;3.92;;;;;;;;;;10092558;28;20090;-67
2022/08/23 03:56:01;;;;;;;5.43;3.33;;;;;;;;;;10085504;28;20154;-68
2022/08/23 04:00:57;;;;;;;7.38;4.20;;;;;;;;;;10086182;28;20061;-69
2022/08/23 04:05:53;;;;;;;7.88;3.80;;;;;;;;;;10087987;28;20076;-69
2022/08/23 04:10:50;;;;;;;8.90;4.70;;;;;;;;;;10108097;28;20644;-69
2022/08/23 04:15:48;;;;;;;7.05;4.25;;;;;;;;;;10107152;28;20475;-69
2022/08/23 04:20:45;;;;;;;11.43;3.85;;;;;;;;;;10109100;28;20492;-69
2022/08/23 04:25:44;;;;;;;13.23;5.43;;;;;;;;;;10104097;28;20453;-69
2022/08/23 04:30:41;;;;;;;5.28;3.90;;;;;;;;;;10102571;28;20092;-68
2022/08/23 04:35:40;;;;;;;6.53;4.70;;;;;;;;;;10103016;28;20053;-68
2022/08/23 04:45:51;;;;;;;6.90;4.38;;;;;;;;;;10103787;28;20479;-68
2022/08/23 04:50:48;;;;;;;5.68;4.53;;;;;;;;;;10101303;28;20097;-68
2022/08/23 04:55:44;;;;;;;7.10;4.32;;;;;;;;;;10100546;28;20137;-68
2022/08/23 05:00:40;;;;;;;7.55;4.70;;;;;;;;;;10103582;28;20717;-68
2022/08/23 05:05:37;;;;;;;11.73;4.53;;;;;;;;;;10105070;28;20074;-69
2022/08/23 05:10:33;;;;;;;11.05;4.95;;;;;;;;;;10103727;28;20122;-68
2022/08/23 05:15:30;;;;;;;6.32;4.70;;;;;;;;;;10104680;28;20122;-68
2022/08/23 05:20:26;;;;;;;6.30;5.18;;;;;;;;;;10108343;28;20050;-69
2022/08/23 05:25:23;;;;;;;8.40;4.75;;;;;;;;;;10107491;28;20066;-68
2022/08/23 05:30:19;;;;;;;6.28;4.55;;;;;;;;;;10102632;28;20452;-69
2022/08/23 05:35:16;;;;;;;8.32;5.80;;;;;;;;;;10105218;28;20166;-69
2022/08/23 05:40:13;;;;;;;8.20;5.20;;;;;;;;;;10101806;28;20082;-68
2022/08/23 05:45:09;;;;;;;8.82;5.38;;;;;;;;;;10100802;28;20121;-69
2022/08/23 05:50:06;;;;;;;7.35;5.55;;;;;;;;;;10106375;28;20161;-69
2022/08/23 05:55:03;;;;;;;5.97;5.25;;;;;;;;;;10095660;28;20043;-69
2022/08/23 05:59:59;;;;;;;6.63;5.85;;;;;;;;;;10107906;28;20708;-69
2022/08/23 06:04:56;;;;;;;7.65;5.38;;;;;;;;;;10111903;28;20125;-68
2022/08/23 06:09:54;;;;;;;6.75;5.60;;;;;;;;;;10112354;28;20075;-68
2022/08/23 06:14:50;;;;;;;6.55;5.80;;;;;;;;;;10112874;28;20047;-68
2022/08/23 06:19:47;;;;;;;6.38;5.68;;;;;;;;;;10110213;28;20063;-68
2022/08/23 06:24:44;;;;;;;6.43;5.50;;;;;;;;;;10112902;28;20096;-68
2022/08/23 06:29:40;;;;;;;8.18;5.07;;;;;;;;;;10106925;28;20691;-68
2022/08/23 06:34:37;;;;;;;5.93;5.43;;;;;;;;;;10080698;28;20537;-68
2022/08/23 06:39:34;;;;;;;7.93;5.78;;;;;;;;;;10108166;28;20061;-68
2022/08/23 06:44:34;;;;;;;6.25;5.60;;;;;;;;;;10107356;28;20057;-68
2022/08/23 06:49:30;;;;;;;6.55;5.70;;;;;;;;;;10111799;28;20070;-68
2022/08/23 06:54:27;;;;;;;6.00;5.40;;;;;;;;;;10112477;28;20089;-68
2022/08/23 06:59:24;;;;;;;6.00;5.22;;;;;;;;;;10110636;28;20043;-68
2022/08/23 07:04:31;;;;;;;7.18;5.85;;;;;;;;;;10111237;28;20142;-69
2022/08/23 07:09:28;;;;;;;6.30;5.53;;;;;;;;;;10111758;28;20047;-69
2022/08/23 07:14:25;;;;;;;7.70;6.32;;;;;;;;;;10109849;28;20109;-68
2022/08/23 07:19:22;;;;;;;6.65;5.95;;;;;;;;;;10103293;28;20141;-68
2022/08/23 07:24:25;;;;;;;6.53;5.60;;;;;;;;;;10110727;28;20051;-69
2022/08/23 07:29:28;;;;;;;6.65;5.82;;;;;;;;;;10108432;28;20075;-68
2022/08/23 07:34:25;;;;;;;6.18;5.57;;;;;;;;;;10104361;28;20043;-69
2022/08/23 07:39:22;;;;;;;6.45;5.85;;;;;;;;;;10108888;28;20038;-69
2022/08/23 07:44:19;;;;;;;8.13;5.80;;;;;;;;;;10109729;28;20042;-68
2022/08/23 07:49:19;;;;;;;6.60;5.93;;;;;;;;;;10109321;28;20047;-69
2022/08/23 07:54:16;;;;;;;7.05;6.15;;;;;;;;;;10104038;28;20568;-68
2022/08/23 07:59:13;;;;;;;5.93;5.40;;;;;;;;;;10104159;28;20085;-70
2022/08/23 08:04:10;;;;;;;7.57;6.97;;;;;;;;;;10108809;28;20117;-69
2022/08/23 08:09:07;;;;;;;7.40;6.70;;;;;;;;;;10109905;28;20046;-68
2022/08/23 08:14:04;;;;;;;7.53;6.72;;;;;;;;;;10106988;28;20050;-68
2022/08/23 08:19:02;;;;;;;7.50;6.85;;;;;;;;;;10105627;28;20134;-69
2022/08/23 08:23:59;;;;;;;7.25;6.65;;;;;;;;;;10104645;28;20141;-68
2022/08/23 08:28:55;;;;;;;7.53;6.90;;;;;;;;;;10102505;28;20585;-68
2022/08/23 08:33:52;;;;;;;7.32;6.65;;;;;;;;;;10104635;28;20135;-68
2022/08/23 08:38:48;;;;;;;7.45;6.75;;;;;;;;;;10108443;28;20042;-69
2022/08/23 08:44:00;;;;;;;7.30;6.80;;;;;;;;;;10109284;28;20050;-68
2022/08/23 08:48:58;;;;;;;9.75;7.05;;;;;;;;;;10101081;28;20078;-69
2022/08/23 08:53:56;;;;;;;6.40;5.75;;;;;;;;;;10108368;28;20732;-69
2022/08/23 08:58:54;;;;;;;6.70;6.00;;;;;;;;;;10108138;28;20142;-68
2022/08/23 09:03:50;;;;;;;7.13;6.40;;;;;;;;;;10108793;28;20732;-68
2022/08/23 09:09:07;;;;;;;7.32;6.53;;;;;;;;;;10107552;28;20097;-69
2022/08/23 09:14:06;;;;;;;7.20;6.38;;;;;;;;;;10108795;28;20562;-69
2022/08/23 09:19:03;;;;;;;10.02;6.50;;;;;;;;;;10107033;28;20078;-68
2022/08/23 09:23:59;;;;;;;7.07;6.38;;;;;;;;;;10106489;28;20536;-69
2022/08/23 09:29:15;;;;;;;7.32;5.85;;;;;;;;;;10104826;28;20049;-69
2022/08/23 09:34:19;;;;;;;7.30;6.38;;;;;;;;;;10105158;28;20062;-68
2022/08/23 09:39:23;;;;;;;6.07;5.47;;;;;;;;;;10110384;28;20074;-68
2022/08/23 09:44:34;;;;;;;6.43;5.82;;;;;;;;;;10110659;28;20051;-68
2022/08/23 09:49:31;;;;;;;7.93;6.82;;;;;;;;;;10114979;28;20137;-69
2022/08/23 09:54:27;;;;;;;7.50;6.80;;;;;;;;;;10105003;28;20480;-69
2022/08/23 09:59:32;;;;;;;8.45;6.88;;;;;;;;;;10083984;28;20212;-68
2022/08/23 10:04:29;;;;;;;6.50;5.90;;;;;;;;;;10111097;28;20105;-69
2022/08/23 10:09:29;;;;;;;6.95;6.25;;;;;;;;;;10109197;28;20043;-69
2022/08/23 10:14:27;;;;;;;7.13;6.38;;;;;;;;;;10114556;28;20501;-69
2022/08/23 10:19:47;;;;;;;6.75;6.20;;;;;;;;;;10108799;28;20129;-68
2022/08/23 10:24:45;;;;;;;7.15;6.53;;;;;;;;;;10112911;28;20089;-69
2022/08/23 10:29:47;;;;;;;6.97;6.35;;;;;;;;;;10109300;28;20398;-69
2022/08/23 10:34:59;;;;;;;6.63;6.03;;;;;;;;;;10107086;28;20046;-69
2022/08/23 10:39:58;;;;;;;10.13;6.50;;;;;;;;;;10113728;28;20536;-69
2022/08/23 10:45:02;;;;;;;7.22;6.53;;;;;;;;;;10113449;28;20092;-69
2022/08/23 10:50:02;;;;;;;8.23;5.90;;;;;;;;;;10105737;28;20084;-69
2022/08/23 10:55:15;;;;;;;8.80;6.55;;;;;;;;;;10111898;28;20051;-69
2022/08/23 11:00:16;;;;;;;6.47;5.97;;;;;;;;;;10109411;28;20109;-69
2022/08/23 11:05:18;;;;;;;6.50;6.00;;;;;;;;;;10110885;28;20093;-69
2022/08/23 11:10:25;;;;;;;6.72;6.18;;;;;;;;;;10103432;28;20578;-69
2022/08/23 11:15:34;;;;;;;6.40;5.90;;;;;;;;;;10098368;28;20085;-69
2022/08/23 11:20:54;;;;;;;6.40;5.80;;;;;;;;;;10104509;28;20457;-68
2022/08/23 11:25:50;;;;;;;10.75;6.07;;;;;;;;;;10103141;28;20247;-69
2022/08/23 11:30:48;;;;;;;6.63;6.00;;;;;;;;;;10110662;28;20466;-69
2022/08/23 11:35:50;;;;;;;6.95;6.35;;;;;;;;;;10112885;28;20046;-68
2022/08/23 11:40:55;;;;;;;6.20;5.70;;;;;;;;;;10108795;28;20078;-69
2022/08/23 11:45:52;;;;;;;6.25;5.75;;;;;;;;;;10108095;28;20472;-69
2022/08/23 11:51:04;;;;;;;6.45;5.68;;;;;;;;;;10112678;28;20062;-69
2022/08/23 11:56:08;;;;;;;7.10;6.00;;;;;;;;;;10101452;28;20129;-69
2022/08/23 12:01:07;;;;;;;6.50;6.00;;;;;;;;;;10106932;28;20085;-69
2022/08/23 12:06:06;;;;;;;7.30;5.97;;;;;;;;;;10110752;28;20544;-70
2022/08/23 12:11:05;;;;;;;6.47;5.97;;;;;;;;;;10097480;28;20116;-69
2022/08/23 12:16:14;;;;;;;6.00;5.50;;;;;;;;;;10108854;28;20501;-69
2022/08/23 12:21:16;;;;;;;7.22;6.50;;;;;;;;;;10103276;28;20109;-69
2022/08/23 12:26:19;;;;;;;6.43;5.82;;;;;;;;;;10107047;28;20066;-69
2022/08/23 12:31:30;;;;;;;6.82;6.15;;;;;;;;;;10110243;28;20046;-69
2022/08/23 12:36:31;;;;;;;6.95;6.35;;;;;;;;;;10098571;28;20065;-69
2022/08/23 12:41:30;;;;;;;6.70;6.20;;;;;;;;;;10091056;28;20170;-69
2022/08/23 12:46:29;;;;;;;9.20;6.38;;;;;;;;;;10071353;28;20102;-69
2022/08/23 12:51:25;;;;;;;6.97;6.47;;;;;;;;;;10069729;28;20086;-69
2022/08/23 12:56:28;;;;;;;6.85;6.35;;;;;;;;;;10081202;28;20479;-69
2022/08/23 13:01:35;;;;;;;6.53;5.78;;;;;;;;;;10104907;28;20097;-69
2022/08/23 13:06:38;;;;;;;6.63;6.13;;;;;;;;;;10097801;28;20046;-69
2022/08/23 13:11:38;;;;;;;7.05;6.40;;;;;;;;;;10106712;28;20047;-69
2022/08/23 13:16:42;;;;;;;6.78;6.18;;;;;;;;;;10113517;28;20457;-69
2022/08/23 13:21:38;;;;;;;6.15;5.65;;;;;;;;;;10113417;28;20081;-67
2022/08/23 13:26:38;;;;;;;6.50;5.90;;;;;;;;;;10113208;28;20078;-69
2022/08/23 13:32:06;;;;;;;7.35;6.32;;;;;;;;;;10114530;28;20484;-69
2022/08/23 13:37:15;;;;;;;6.38;5.70;;;;;;;;;;10104676;28;20047;-69
2022/08/23 13:42:12;;;;;;;6.60;6.03;;;;;;;;;;10114171;28;20619;-69
2022/08/23 13:47:18;;;;;;;8.77;5.75;;;;;;;;;;10114542;28;20078;-69
2022/08/23 13:52:15;;;;;;;7.60;6.00;;;;;;;;;;10113747;28;20042;-69
2022/08/23 13:57:35;;;;;;;6.63;6.13;;;;;;;;;;10111623;28;20061;-69
2022/08/23 14:02:32;;;;;;;7.38;6.00;;;;;;;;;;10114927;28;20093;-70
2022/08/23 14:07:28;;;;;;;6.32;5.80;;;;;;;;;;10113188;28;20121;-69
2022/08/23 14:12:26;;;;;;;6.75;6.03;;;;;;;;;;10111262;28;20074;-69
2022/08/23 14:17:23;;;;;;;6.43;5.82;;;;;;;;;;10112591;28;20066;-70
2022/08/23 14:22:19;;;;;;;6.97;6.38;;;;;;;;;;10107332;28;20102;-69
2022/08/23 14:27:15;;;;;;;6.15;5.65;;;;;;;;;;10109466;28;20709;-69
2022/08/23 14:32:12;;;;;;;6.57;5.80;;;;;;;;;;10109628;28;20074;-69
2022/08/23 14:37:08;;;;;;;6.93;6.43;;;;;;;;;;10109384;28;20137;-69
2022/08/23 14:42:24;;;;;;;7.97;6.35;;;;;;;;;;10114069;28;20063;-70
2022/08/23 14:47:20;;;;;;;7.10;6.50;;;;;;;;;;10110750;28;20078;-69
2022/08/23 14:52:17;;;;;;;6.30;5.70;;;;;;;;;;10112821;28;20458;-69
2022/08/23 14:57:13;;;;;;;6.30;5.80;;;;;;;;;;10114224;28;20074;-70
2022/08/23 15:02:10;;;;;;;6.75;6.13;;;;;;;;;;10104356;28;20074;-69
2022/08/23 15:07:07;;;;;;;6.82;6.15;;;;;;;;;;10110904;28;20532;-69
2022/08/23 15:12:14;;;;;;;6.28;5.78;;;;;;;;;;10106623;28;20049;-69
2022/08/23 15:17:34;;;;;;;6.55;5.95;;;;;;;;;;10109328;28;20053;-70
2022/08/23 15:22:30;;;;;;;7.03;6.05;;;;;;;;;;10111112;28;20121;-69
2022/08/23 15:27:28;;;;;;;6.53;5.78;;;;;;;;;;10109878;28;20513;-69
2022/08/23 15:32:25;;;;;;;7.50;5.68;;;;;;;;;;10108325;28;20043;-70
2022/08/23 15:37:23;;;;;;;6.10;5.60;;;;;;;;;;10107167;28;20142;-69
2022/08/23 15:42:19;;;;;;;7.40;5.63;;;;;;;;;;10102616;28;20063;-69
2022/08/23 15:47:20;;;;;;;5.88;5.38;;;;;;;;;;10108132;28;20074;-70
2022/08/23 15:52:17;;;;;;;6.50;5.90;;;;;;;;;;10112610;28;20142;-69
2022/08/23 15:57:14;;;;;;;6.53;6.03;;;;;;;;;;10108912;28;20561;-69
2022/08/23 16:02:11;;;;;;;6.50;5.90;;;;;;;;;;10112212;28;20145;-69
2022/08/23 16:07:08;;;;;;;7.13;5.35;;;;;;;;;;10109399;28;20155;-70
2022/08/23 16:12:05;;;;;;;6.85;6.25;;;;;;;;;;10108933;28;20051;-69
2022/08/23 16:17:02;;;;;;;6.68;6.07;;;;;;;;;;10107370;28;20616;-69
2022/08/23 16:21:58;;;;;;;10.38;6.55;;;;;;;;;;10109843;28;20184;-69
2022/08/23 16:26:55;;;;;;;15.85;6.65;;;;;;;;;;10109788;28;20547;-70
2022/08/23 16:31:52;;;;;;;7.00;6.40;;;;;;;;;;10111929;28;20493;-69
2022/08/23 16:36:52;;;;;;;6.80;6.20;;;;;;;;;;10107548;28;20110;-70
2022/08/23 16:41:50;;;;;;;6.70;6.10;;;;;;;;;;10105648;28;20070;-70
2022/08/23 16:46:46;;;;;;;8.10;6.55;;;;;;;;;;10107403;28;20619;-70
2022/08/23 16:51:43;;;;;;;6.88;6.15;;;;;;;;;;10102488;28;20499;-69
2022/08/23 16:56:40;;;;;;;6.55;5.95;;;;;;;;;;10100041;28;20067;-69
2022/08/23 17:02:02;;;;;;;6.82;6.22;;;;;;;;;;10100095;28;20043;-70
2022/08/23 17:07:06;;;;;;;6.75;6.20;;;;;;;;;;10106251;28;20505;-69
2022/08/23 17:12:02;;;;;;;11.10;6.68;;;;;;;;;;10100827;28;20448;-69
2022/08/23 17:16:59;;;;;;;6.65;6.00;;;;;;;;;;10105146;28;20051;-69
2022/08/23 17:21:55;;;;;;;7.72;7.03;;;;;;;;;;10107314;28;20097;-69
2022/08/23 17:26:51;;;;;;;7.15;6.55;;;;;;;;;;10103254;28;20113;-69
2022/08/23 17:31:48;;;;;;;7.22;6.20;;;;;;;;;;10104170;28;20121;-69
2022/08/23 17:36:46;;;;;;;6.80;6.05;;;;;;;;;;10105266;28;20114;-69
2022/08/23 17:41:43;;;;;;;11.55;5.75;;;;;;;;;;10101428;28;20055;-69
2022/08/23 17:46:41;;;;;;;7.03;6.00;;;;;;;;;;10102840;28;20051;-69
2022/08/23 17:51:39;;;;;;;8.07;5.72;;;;;;;;;;10103006;28;20137;-69
2022/08/23 17:56:36;;;;;;;6.40;5.72;;;;;;;;;;10106264;28;20043;-69
2022/08/23 18:01:36;;;;;;;6.05;5.45;;;;;;;;;;10109521;28;20038;-69
2022/08/23 18:06:32;;;;;;;6.18;5.57;;;;;;;;;;10110132;28;20771;-69
2022/08/23 18:11:30;;;;;;;5.65;5.15;;;;;;;;;;10112184;28;20137;-69
2022/08/23 18:16:28;;;;;;;6.15;5.40;;;;;;;;;;10111997;28;20122;-69
2022/08/23 18:21:30;;;;;;;5.75;5.20;;;;;;;;;;10111576;28;20054;-69
2022/08/23 18:31:42;;;;;;;9.10;6.55;;;;;;;;;;10112350;28;20046;-69
2022/08/23 18:36:39;;;;;;;7.18;5.43;;;;;;;;;;10112243;28;20535;-69
2022/08/23 18:41:37;;;;;;;7.00;5.30;;;;;;;;;;10107513;28;20042;-69
2022/08/23 18:46:34;;;;;;;7.30;5.75;;;;;;;;;;10112192;28;20563;-68
2022/08/23 18:51:30;;;;;;;6.82;5.70;;;;;;;;;;10110940;28;20501;-68
2022/08/23 18:56:26;;;;;;;5.97;4.93;;;;;;;;;;10102486;28;20149;-68
2022/08/23 19:01:27;;;;;;;8.25;5.65;;;;;;;;;;10088845;28;20126;-68
2022/08/23 19:06:24;;;;;;;7.25;6.05;;;;;;;;;;10093406;28;20045;-68
2022/08/23 19:11:22;;;;;;;5.80;5.20;;;;;;;;;;10087186;28;20138;-68
2022/08/23 19:16:19;;;;;;;6.20;5.53;;;;;;;;;;10088107;28;20067;-68
2022/08/23 19:21:19;;;;;;;6.57;5.85;;;;;;;;;;10095008;28;20065;-68
2022/08/23 19:26:18;;;;;;;13.88;9.32;;;;;;;;;;10119296;28;20145;-68
2022/08/23 19:31:15;;;;;;;6.07;5.47;;;;;;;;;;10107171;28;20042;-68
2022/08/23 19:36:12;;;;;;;8.15;5.88;;;;;;;;;;10100824;28;20109;-68
2022/08/23 19:41:29;;;;;;;7.35;6.05;;;;;;;;;;10105842;28;20054;-68
2022/08/23 19:46:26;;;;;;;6.22;5.25;;;;;;;;;;10110648;28;20126;-68
2022/08/23 19:51:23;;;;;;;7.55;5.65;;;;;;;;;;10108744;28;20523;-68
2022/08/23 19:56:19;;;;;;;6.00;5.50;;;;;;;;;;10107922;28;20203;-68
2022/08/23 20:01:16;;;;;;;5.82;5.22;;;;;;;;;;10099430;28;20142;-68
2022/08/23 20:06:12;;;;;;;6.25;5.63;;;;;;;;;;10103796;28;20157;-68
2022/08/23 20:11:14;;;;;;;5.60;5.05;;;;;;;;;;10102467;28;20051;-68
2022/08/23 20:16:10;;;;;;;6.25;5.65;;;;;;;;;;10099849;28;20145;-68
2022/08/23 20:21:07;;;;;;;6.68;5.38;;;;;;;;;;10095907;28;20528;-68
2022/08/23 20:26:03;;;;;;;9.77;5.28;;;;;;;;;;10097322;28;20142;-68
2022/08/23 20:31:21;;;;;;;5.32;4.72;;;;;;;;;;10092103;28;20066;-68
2022/08/23 20:36:19;;;;;;;6.00;4.60;;;;;;;;;;10099699;28;20107;-68
2022/08/23 20:41:15;;;;;;;9.60;7.28;;;;;;;;;;10102160;28;20097;-67
2022/08/23 20:46:12;;;;;;;5.28;4.50;;;;;;;;;;10105715;28;20047;-67
2022/08/23 20:51:09;;;;;;;5.85;4.55;;;;;;;;;;10105099;28;20058;-67
2022/08/23 20:56:06;;;;;;;6.15;4.88;;;;;;;;;;10103030;28;20055;-67
2022/08/23 21:01:04;;;;;;;6.38;5.03;;;;;;;;;;10097535;28;20078;-67
2022/08/23 21:06:07;;;;;;;7.03;4.75;;;;;;;;;;10107490;28;20042;-67
2022/08/23 21:11:04;;;;;;;9.02;4.80;;;;;;;;;;10098212;28;20074;-67
2022/08/23 21:16:01;;;;;;;5.70;5.10;;;;;;;;;;10105949;28;20066;-67
2022/08/23 21:20:58;;;;;;;5.35;4.85;;;;;;;;;;10097370;28;20138;-67
2022/08/23 21:25:55;;;;;;;6.78;5.15;;;;;;;;;;10100757;28;20154;-68
2022/08/23 21:30:52;;;;;;;7.10;4.90;;;;;;;;;;10095874;28;20489;-69
2022/08/23 21:35:48;;;;;;;5.15;4.65;;;;;;;;;;10107343;28;20051;-68
2022/08/23 21:40:44;;;;;;;5.65;4.80;;;;;;;;;;10109999;28;20583;-68
2022/08/23 21:45:41;;;;;;;6.32;5.07;;;;;;;;;;10112481;28;20540;-67
2022/08/23 21:50:38;;;;;;;8.88;5.20;;;;;;;;;;10112168;28;20071;-67
2022/08/23 21:55:34;;;;;;;5.88;4.80;;;;;;;;;;10113346;28;20137;-67
2022/08/23 22:00:33;;;;;;;5.22;4.68;;;;;;;;;;10102353;28;20141;-67
2022/08/23 22:05:29;;;;;;;6.50;4.68;;;;;;;;;;10110956;28;20083;-67
2022/08/23 22:10:26;;;;;;;8.95;4.97;;;;;;;;;;10102646;28;20500;-67
2022/08/23 22:15:23;;;;;;;6.22;4.68;;;;;;;;;;10111535;28;20098;-67
2022/08/23 22:20:20;;;;;;;6.63;4.55;;;;;;;;;;10108535;28;20193;-67
2022/08/23 22:25:16;;;;;;;10.15;4.50;;;;;;;;;;10111102;28;20050;-67
2022/08/23 22:30:13;;;;;;;9.48;5.22;;;;;;;;;;10108188;28;20075;-68
2022/08/23 22:35:10;;;;;;;6.85;4.10;;;;;;;;;;10110582;28;21660;-67
2022/08/23 22:40:08;;;;;;;5.93;4.50;;;;;;;;;;10092155;28;20079;-68
2022/08/23 22:45:05;;;;;;;5.70;4.55;;;;;;;;;;10108539;28;20420;-67
2022/08/23 22:50:02;;;;;;;6.32;4.30;;;;;;;;;;10109489;28;20106;-68
2022/08/23 22:54:58;;;;;;;8.18;4.60;;;;;;;;;;10108939;28;20082;-67
2022/08/23 22:59:55;;;;;;;4.93;4.43;;;;;;;;;;10112509;28;20162;-68
2022/08/23 23:04:53;;;;;;;5.68;4.45;;;;;;;;;;10104249;28;20054;-67
2022/08/23 23:09:50;;;;;;;7.70;4.50;;;;;;;;;;10101166;28;20462;-67
2022/08/23 23:14:46;;;;;;;6.13;4.53;;;;;;;;;;10108111;28;21317;-67
2022/08/23 23:24:59;;;;;;;4.68;4.22;;;;;;;;;;10103100;28;20548;-68
2022/08/23 23:29:56;;;;;;;5.63;4.13;;;;;;;;;;10102216;28;20070;-68
2022/08/23 23:34:53;;;;;;;5.55;4.47;;;;;;;;;;10105033;28;20047;-68
2022/08/23 23:39:52;;;;;;;6.55;4.43;;;;;;;;;;10104750;28;20054;-67
2022/08/23 23:44:48;;;;;;;4.95;3.95;;;;;;;;;;10095843;28;20039;-67
2022/08/23 23:49:45;;;;;;;6.85;4.18;;;;;;;;;;10106653;28;20471;-67
2022/08/23 23:54:41;;;;;;;8.43;4.72;;;;;;;;;;10105562;28;20067;-67
2022/08/23 23:59:39;;;;;;;5.13;3.83;;;;;;;;;;10101298;28;20114;-67
